Time;durP1;ratioP1;P1;durP2;ratioP2;P2;SDS_P1;SDS_P2;PMS_P1;PMS_P2;Temp;Humidity;BMP_temperature;BMP_pressure;BME280_temperature;BME280_humidity;BME280_pressure;Samples;Min_cycle;Max_cycle;Signal;HPM_P1;HPM_P2
2022/11/30 00:01:07;;;;;;;24.23;12.48;;;;;;;9.40;69.16;100354.69;5022106;28;20053;-80
2022/11/30 00:03:33;;;;;;;24.85;12.95;;;;;;;9.38;69.07;100354.75;5038416;28;20045;-80
2022/11/30 00:06:12;;;;;;;25.33;12.43;;;;;;;9.36;69.57;100356.59;5032397;28;20111;-80
2022/11/30 00:08:38;;;;;;;22.13;12.00;;;;;;;9.38;69.34;100349.50;5029683;28;20462;-80
2022/11/30 00:11:13;;;;;;;28.30;11.85;;;;;;;9.36;69.54;100351.34;5029909;28;20057;-79
2022/11/30 00:13:40;;;;;;;39.67;13.95;;;;;;;9.38;69.19;100352.13;5044438;28;20099;-79
2022/11/30 00:16:07;;;;;;;47.13;12.43;;;;;;;9.40;69.39;100357.31;5049254;28;20056;-79
2022/11/30 00:18:34;;;;;;;21.10;13.65;;;;;;;9.38;69.43;100351.25;5035654;28;20065;-80
2022/11/30 00:21:04;;;;;;;32.78;13.02;;;;;;;9.37;69.33;100355.69;5053816;28;20056;-80
2022/11/30 00:23:32;;;;;;;19.08;13.55;;;;;;;9.36;69.18;100348.72;5053767;28;20111;-80
2022/11/30 00:26:03;;;;;;;23.23;11.95;;;;;;;9.34;69.48;100347.91;5053974;28;20138;-80
2022/11/30 00:28:31;;;;;;;20.05;12.30;;;;;;;9.37;69.47;100339.03;5035900;28;20080;-80
2022/11/30 00:30:59;;;;;;;26.50;13.43;;;;;;;9.37;69.42;100341.69;5052728;28;20052;-80
2022/11/30 00:33:26;;;;;;;26.10;12.82;;;;;;;9.37;69.53;100334.66;5053397;28;20049;-80
2022/11/30 00:36:00;;;;;;;24.80;12.73;;;;;;;9.36;69.58;100350.47;5034380;28;20107;-80
2022/11/30 00:38:27;;;;;;;19.65;11.57;;;;;;;9.38;69.65;100346.88;5050301;28;20063;-80
2022/11/30 00:40:55;;;;;;;37.30;13.55;;;;;;;9.41;69.56;100345.03;5045491;28;20060;-80
2022/11/30 00:43:22;;;;;;;20.02;11.93;;;;;;;9.40;69.33;100344.19;5035906;28;20049;-80
2022/11/30 00:45:48;;;;;;;21.45;12.65;;;;;;;9.41;69.68;100342.41;5053482;28;20080;-80
2022/11/30 00:48:15;;;;;;;32.33;13.82;;;;;;;9.43;69.46;100344.06;5053131;28;20079;-79
2022/11/30 00:50:41;;;;;;;21.52;12.68;;;;;;;9.42;69.41;100333.59;5035783;28;20110;-79
2022/11/30 00:53:08;;;;;;;35.50;12.48;;;;;;;9.43;69.50;100333.56;5053399;28;20122;-80
2022/11/30 00:55:34;;;;;;;49.80;12.75;;;;;;;9.44;69.29;100335.25;5035226;28;20553;-80
2022/11/30 00:58:00;;;;;;;38.88;12.57;;;;;;;9.43;69.34;100330.91;5053196;28;20060;-79
2022/11/30 01:00:27;;;;;;;35.90;12.27;;;;;;;9.45;69.51;100333.44;5053087;28;20056;-80
2022/11/30 01:02:55;;;;;;;34.10;11.95;;;;;;;9.43;69.46;100338.81;5053448;28;20048;-80
2022/11/30 01:05:22;;;;;;;32.88;11.68;;;;;;;9.43;69.60;100333.56;5052918;28;20061;-79
2022/11/30 01:07:48;;;;;;;71.13;12.75;;;;;;;9.44;69.62;100329.13;5052867;28;20053;-80
2022/11/30 01:10:15;;;;;;;26.02;11.20;;;;;;;9.44;69.43;100332.63;5052576;28;20158;-80
2022/11/30 01:12:41;;;;;;;32.55;10.40;;;;;;;9.45;69.57;100330.81;5052867;28;20064;-79
2022/11/30 01:15:08;;;;;;;24.73;11.15;;;;;;;9.45;69.67;100334.31;5053133;28;20057;-79
2022/11/30 01:17:35;;;;;;;42.13;12.02;;;;;;;9.46;69.60;100343.91;5052595;28;20118;-80
2022/11/30 01:20:03;;;;;;;33.05;11.63;;;;;;;9.45;69.74;100342.22;5052828;28;20061;-79
2022/11/30 01:22:30;;;;;;;27.50;12.88;;;;;;;9.47;69.65;100353.53;5034906;28;20080;-79
2022/11/30 01:24:56;;;;;;;18.40;11.85;;;;;;;9.48;69.67;100347.34;5052583;28;20049;-79
2022/11/30 01:27:22;;;;;;;19.10;11.18;;;;;;;9.49;69.65;100348.16;5034723;28;20053;-80
2022/11/30 01:29:49;;;;;;;20.42;12.15;;;;;;;9.49;69.33;100356.91;5052417;28;20558;-79
2022/11/30 01:32:15;;;;;;;20.00;12.30;;;;;;;9.49;69.40;100356.06;5052284;28;20499;-79
2022/11/30 01:34:42;;;;;;;16.15;10.65;;;;;;;9.49;69.33;100350.81;5052673;28;20056;-79
2022/11/30 01:37:08;;;;;;;18.00;11.50;;;;;;;9.48;69.41;100363.09;5052646;28;20065;-79
2022/11/30 01:39:35;;;;;;;19.17;11.93;;;;;;;9.46;69.28;100358.84;5052375;28;20073;-80
2022/11/30 01:42:01;;;;;;;18.67;11.98;;;;;;;9.45;69.36;100357.97;5052300;28;20056;-79
2022/11/30 01:44:27;;;;;;;17.05;11.20;;;;;;;9.46;69.36;100350.94;5052143;28;20573;-80
2022/11/30 01:46:58;;;;;;;17.65;11.82;;;;;;;9.43;69.19;100354.56;5051960;28;20507;-80
2022/11/30 01:49:57;;;;;;;18.73;11.57;;;;;;;9.40;69.77;100354.69;5052279;28;20061;-79
2022/11/30 01:52:32;;;;;;;18.23;11.15;;;;;;;9.43;69.64;100358.97;5036558;28;20111;-80
2022/11/30 01:55:22;;;;;;;20.20;11.45;;;;;;;9.40;69.49;100349.44;5051968;28;20102;-79
2022/11/30 01:58:21;;;;;;;16.75;10.57;;;;;;;9.46;69.31;100359.66;5052104;28;20096;-80
2022/11/30 02:00:47;;;;;;;17.42;10.52;;;;;;;9.45;69.21;100368.47;5007804;28;20115;-80
2022/11/30 02:03:20;;;;;;;17.85;11.10;;;;;;;9.42;69.23;100365.97;5051875;28;20060;-79
2022/11/30 02:05:48;;;;;;;20.60;11.27;;;;;;;9.41;69.23;100351.13;5034379;28;20122;-80
2022/11/30 02:08:14;;;;;;;16.80;11.20;;;;;;;9.41;69.03;100351.13;5034006;28;20122;-80
2022/11/30 02:10:46;;;;;;;19.27;11.60;;;;;;;9.41;69.29;100355.56;5034012;28;20057;-80
2022/11/30 02:13:21;;;;;;;17.45;11.15;;;;;;;9.39;69.51;100355.63;5033952;28;20068;-80
2022/11/30 02:16:07;;;;;;;16.33;11.05;;;;;;;9.38;69.32;100346.00;5051470;28;20110;-80
2022/11/30 02:18:47;;;;;;;19.50;11.25;;;;;;;9.38;69.23;100356.50;5051580;28;20056;-80
2022/11/30 02:21:44;;;;;;;22.20;12.50;;;;;;;9.38;69.46;100361.75;5051736;28;20061;-80
2022/11/30 02:24:34;;;;;;;19.08;12.35;;;;;;;9.36;69.21;100361.00;5051567;28;20126;-79
2022/11/30 02:27:16;;;;;;;18.50;10.98;;;;;;;9.38;69.03;100357.38;5051751;28;20237;-79
2022/11/30 02:29:55;;;;;;;20.33;12.10;;;;;;;9.37;69.25;100360.94;5051497;28;20052;-79
2022/11/30 02:32:24;;;;;;;18.30;11.65;;;;;;;9.39;69.15;100360.88;5051381;28;20095;-79
2022/11/30 02:34:52;;;;;;;20.83;11.07;;;;;;;9.37;69.13;100365.31;5050458;28;20091;-79
2022/11/30 02:37:21;;;;;;;16.90;11.02;;;;;;;9.36;69.16;100355.75;5051390;28;20304;-79
2022/11/30 02:39:47;;;;;;;20.48;12.07;;;;;;;9.36;69.28;100350.47;5051279;28;20370;-79
2022/11/30 02:42:14;;;;;;;20.55;11.57;;;;;;;9.35;69.22;100361.91;5051307;28;20080;-79
2022/11/30 02:44:47;;;;;;;49.92;12.70;;;;;;;9.34;69.50;100362.81;5033447;28;20048;-79
2022/11/30 02:47:40;;;;;;;26.17;11.20;;;;;;;9.33;69.69;100363.75;5051007;28;20561;-80
2022/11/30 02:50:13;;;;;;;23.70;10.93;;;;;;;9.35;69.31;100368.00;5051074;28;20515;-80
2022/11/30 02:52:40;;;;;;;21.25;11.15;;;;;;;9.37;69.17;100367.94;5051380;28;20457;-79
2022/11/30 02:55:09;;;;;;;36.17;10.60;;;;;;;9.36;69.15;100374.13;5050969;28;20110;-80
2022/11/30 02:57:36;;;;;;;17.45;10.38;;;;;;;9.36;69.20;100369.75;5050763;28;20052;-80
2022/11/30 03:00:07;;;;;;;26.80;11.80;;;;;;;9.36;69.16;100374.13;5033284;28;20068;-79
2022/11/30 03:02:33;;;;;;;54.03;11.05;;;;;;;9.36;69.33;100366.25;5050928;28;20506;-80
2022/11/30 03:05:00;;;;;;;66.53;11.52;;;;;;;9.37;69.13;100370.56;5050799;28;20130;-80
2022/11/30 03:07:26;;;;;;;20.55;10.40;;;;;;;9.37;69.18;100365.31;5050680;28;20053;-80
2022/11/30 03:09:53;;;;;;;33.47;10.80;;;;;;;9.36;69.20;100374.13;5050450;28;20060;-80
2022/11/30 03:12:19;;;;;;;56.28;12.35;;;;;;;9.36;69.15;100379.38;5050805;28;20602;-80
2022/11/30 03:14:45;;;;;;;19.65;10.65;;;;;;;9.34;69.75;100374.19;5050559;28;20080;-80
2022/11/30 03:17:12;;;;;;;54.22;11.05;;;;;;;9.33;69.44;100375.13;5050613;28;20103;-80
2022/11/30 03:19:39;;;;;;;54.83;12.07;;;;;;;9.35;69.54;100377.69;5050604;28;20092;-80
2022/11/30 03:22:05;;;;;;;28.80;9.88;;;;;;;9.35;69.56;100375.91;5050618;28;20049;-80
2022/11/30 03:24:31;;;;;;;91.82;12.55;;;;;;;9.35;69.29;100380.31;5050375;28;20541;-79
2022/11/30 03:26:58;;;;;;;31.00;10.15;;;;;;;9.35;69.23;100381.16;5050234;28;20156;-79
2022/11/30 03:29:24;;;;;;;50.72;9.82;;;;;;;9.36;69.33;100385.50;5050515;28;20068;-80
2022/11/30 03:31:50;;;;;;;85.47;11.93;;;;;;;9.37;69.32;100381.09;5050353;28;20533;-80
2022/11/30 03:34:17;;;;;;;69.72;10.70;;;;;;;9.36;69.29;100379.38;5032683;28;20052;-80
2022/11/30 03:36:43;;;;;;;18.05;9.43;;;;;;;9.37;69.19;100383.72;5050094;28;20053;-80
2022/11/30 03:39:10;;;;;;;76.03;11.02;;;;;;;9.37;69.41;100378.47;5050071;28;20064;-80
2022/11/30 03:41:36;;;;;;;34.00;9.65;;;;;;;9.36;69.29;100380.25;5050338;28;20080;-80
2022/11/30 03:44:02;;;;;;;106.65;13.43;;;;;;;9.37;69.33;100381.09;5032543;28;20063;-80
2022/11/30 03:46:29;;;;;;;113.30;11.95;;;;;;;9.37;69.07;100381.09;5050448;28;20460;-80
2022/11/30 03:48:56;;;;;;;145.27;13.07;;;;;;;9.35;69.17;100381.16;5049982;28;20060;-79
2022/11/30 03:51:22;;;;;;;20.25;8.90;;;;;;;9.34;69.10;100381.22;5032438;28;20469;-79
2022/11/30 03:53:48;;;;;;;93.38;11.45;;;;;;;9.31;69.21;100384.81;5049899;28;20064;-79
2022/11/30 03:56:15;;;;;;;29.52;10.40;;;;;;;9.33;69.45;100387.38;5050085;28;20057;-79
2022/11/30 03:58:42;;;;;;;24.00;10.88;;;;;;;9.31;69.65;100381.34;5050039;28;20056;-79
2022/11/30 04:01:18;;;;;;;115.95;13.75;;;;;;;9.30;69.58;100390.16;5050116;28;20053;-79
2022/11/30 04:03:44;;;;;;;28.40;10.13;;;;;;;9.33;69.66;100390.00;5032386;28;20045;-80
2022/11/30 04:06:11;;;;;;;131.13;13.20;;;;;;;9.33;69.46;100390.00;5032085;28;20065;-79
2022/11/30 04:08:39;;;;;;;32.40;11.30;;;;;;;9.34;69.66;100386.47;5032141;28;20327;-79
2022/11/30 04:11:06;;;;;;;44.72;12.63;;;;;;;9.35;69.66;100388.19;5050021;28;20099;-79
2022/11/30 04:13:34;;;;;;;96.22;14.77;;;;;;;9.35;69.38;100390.81;5032121;28;20053;-79
2022/11/30 04:16:01;;;;;;;74.57;12.63;;;;;;;9.36;69.58;100385.50;5049805;28;20060;-80
2022/11/30 04:18:29;;;;;;;39.33;11.43;;;;;;;9.35;69.49;100393.44;5031942;28;20061;-79
2022/11/30 04:20:57;;;;;;;85.85;11.93;;;;;;;9.35;69.39;100385.56;5049688;28;20519;-80
2022/11/30 04:23:25;;;;;;;95.78;11.85;;;;;;;9.35;69.44;100382.94;5032240;28;20049;-80
2022/11/30 04:25:51;;;;;;;144.88;12.80;;;;;;;9.34;69.38;100386.47;5031970;28;20122;-80
2022/11/30 04:28:18;;;;;;;23.95;10.25;;;;;;;9.34;69.48;100386.47;5049500;28;20087;-80
2022/11/30 04:30:45;;;;;;;38.55;10.00;;;;;;;9.32;69.47;100383.91;5049809;28;20052;-80
2022/11/30 04:33:14;;;;;;;49.20;11.73;;;;;;;9.33;69.60;100395.28;5032050;28;20057;-80
2022/11/30 04:35:44;;;;;;;102.55;12.80;;;;;;;9.34;69.31;100394.34;5031968;28;20065;-80
2022/11/30 04:38:11;;;;;;;24.23;9.85;;;;;;;9.32;69.48;100394.44;5032334;28;20171;-80
2022/11/30 04:40:39;;;;;;;36.13;10.98;;;;;;;9.32;69.35;100398.81;5049560;28;20061;-79
2022/11/30 04:43:06;;;;;;;18.45;10.32;;;;;;;9.31;69.11;100391.88;5049555;28;20119;-80
2022/11/30 04:45:32;;;;;;;19.52;9.93;;;;;;;9.30;69.18;100387.53;5049404;28;20061;-79
2022/11/30 04:48:01;;;;;;;13.65;9.45;;;;;;;9.28;69.18;100387.59;5049375;28;20064;-80
2022/11/30 04:50:28;;;;;;;16.17;9.85;;;;;;;9.27;68.98;100392.91;5049574;28;20068;-79
2022/11/30 04:52:54;;;;;;;16.40;10.65;;;;;;;9.25;69.07;100392.97;5049619;28;20092;-79
2022/11/30 04:55:21;;;;;;;14.93;10.27;;;;;;;9.23;69.21;100395.66;5031690;28;20053;-80
2022/11/30 04:57:48;;;;;;;15.00;10.45;;;;;;;9.23;69.66;100395.66;5049902;28;20064;-80
2022/11/30 05:00:16;;;;;;;15.00;10.02;;;;;;;9.23;69.23;100398.28;5053069;28;20057;-79
2022/11/30 05:02:43;;;;;;;14.15;9.15;;;;;;;9.23;69.18;100394.78;5035328;28;20053;-80
2022/11/30 05:05:17;;;;;;;13.10;9.73;;;;;;;9.23;69.19;100400.91;5053054;28;20426;-79
2022/11/30 05:07:47;;;;;;;14.63;10.07;;;;;;;9.21;68.97;100402.75;5053184;28;20174;-79
2022/11/30 05:10:14;;;;;;;12.95;9.77;;;;;;;9.21;69.10;100399.25;5169956;22;20464;-84
2022/11/30 05:12:40;;;;;;;15.13;9.45;;;;;;;9.19;68.99;100401.13;5013567;28;20058;-84
2022/11/30 05:15:07;;;;;;;14.23;9.75;;;;;;;9.17;69.10;100406.44;5013155;28;20054;-84
2022/11/30 05:17:34;;;;;;;13.15;9.55;;;;;;;9.15;69.04;100403.00;5013528;28;20074;-82
2022/11/30 05:20:00;;;;;;;12.38;9.50;;;;;;;9.12;68.87;100409.22;5013374;28;20057;-84
2022/11/30 05:22:27;;;;;;;18.27;9.68;;;;;;;9.11;68.81;100404.91;5013441;28;20089;-84
2022/11/30 05:24:53;;;;;;;16.25;9.38;;;;;;;9.07;68.92;100408.56;4995544;28;20054;-84
2022/11/30 05:27:20;;;;;;;28.25;10.18;;;;;;;9.07;69.09;100407.69;5013363;28;20068;-82
2022/11/30 05:29:48;;;;;;;17.17;9.50;;;;;;;9.04;68.94;100415.72;5013253;28;20145;-84
2022/11/30 05:32:15;;;;;;;17.65;8.98;;;;;;;9.02;68.97;100415.78;5013477;28;20160;-83
2022/11/30 05:34:41;;;;;;;21.23;10.52;;;;;;;9.01;69.13;100413.22;5013343;28;20065;-83
2022/11/30 05:37:16;;;;;;;18.13;9.57;;;;;;;8.99;69.04;100415.88;5013143;28;20057;-83
2022/11/30 05:39:42;;;;;;;12.88;9.32;;;;;;;8.96;68.93;100414.25;5013165;28;20395;-84
2022/11/30 05:42:09;;;;;;;20.70;9.85;;;;;;;8.95;69.48;100417.78;5012855;28;20652;-82
2022/11/30 05:44:35;;;;;;;13.82;9.07;;;;;;;8.95;69.47;100415.16;5013290;28;20064;-82
2022/11/30 05:47:02;;;;;;;15.10;9.73;;;;;;;8.94;69.25;100418.69;5013019;28;20054;-83
2022/11/30 05:49:28;;;;;;;15.07;9.63;;;;;;;8.94;69.27;100421.31;5013177;28;20058;-83
2022/11/30 05:51:55;;;;;;;12.88;9.40;;;;;;;8.94;69.18;100421.31;5012982;28;20222;-85
2022/11/30 05:54:22;;;;;;;13.27;9.48;;;;;;;8.94;69.47;100423.94;5012933;28;20049;-81
2022/11/30 05:56:48;;;;;;;13.50;9.93;;;;;;;8.94;69.32;100421.31;5012436;28;20058;-83
2022/11/30 05:59:20;;;;;;;13.15;8.80;;;;;;;8.94;69.33;100425.72;5012041;28;20061;-82
2022/11/30 06:01:47;;;;;;;17.70;9.68;;;;;;;8.94;69.24;100430.97;5012676;28;20096;-82
2022/11/30 06:04:14;;;;;;;14.13;9.70;;;;;;;8.93;69.12;100430.09;4995368;28;20120;-84
2022/11/30 06:06:41;;;;;;;12.63;9.00;;;;;;;8.92;69.18;100444.16;5012415;28;20061;-83
2022/11/30 06:09:07;;;;;;;18.50;10.45;;;;;;;8.92;69.01;100443.28;5012181;28;20050;-82
2022/11/30 06:11:34;;;;;;;16.75;9.25;;;;;;;8.90;69.23;100451.22;5012042;28;20064;-83
2022/11/30 06:14:00;;;;;;;16.58;9.85;;;;;;;8.90;69.15;100450.38;5012620;28;20053;-84
2022/11/30 06:16:27;;;;;;;15.10;9.95;;;;;;;8.88;69.39;100447.81;5012334;28;20065;-83
2022/11/30 06:18:54;;;;;;;15.43;10.13;;;;;;;8.89;69.22;100453.94;5015097;28;20062;-85
2022/11/30 06:21:20;;;;;;;15.35;10.30;;;;;;;8.89;69.33;100461.81;5011836;28;20054;-83
2022/11/30 06:23:50;;;;;;;23.00;10.13;;;;;;;8.88;69.43;100466.19;5012253;28;20068;-84
2022/11/30 06:26:17;;;;;;;14.25;9.68;;;;;;;8.89;69.70;100464.44;5012003;28;20090;-84
2022/11/30 06:28:43;;;;;;;14.95;10.27;;;;;;;8.88;69.49;100460.94;5012000;28;20141;-82
2022/11/30 06:31:14;;;;;;;25.00;10.82;;;;;;;8.92;69.51;100469.56;5009332;28;20482;-82
2022/11/30 06:33:41;;;;;;;24.23;10.30;;;;;;;8.93;69.56;100468.66;5011766;28;20050;-84
2022/11/30 06:36:08;;;;;;;28.25;9.98;;;;;;;8.94;69.48;100468.56;5011715;28;20137;-82
2022/11/30 06:38:35;;;;;;;16.00;9.88;;;;;;;8.95;69.81;100467.69;4994257;28;20093;-84
2022/11/30 06:41:07;;;;;;;14.82;10.60;;;;;;;8.95;69.61;100464.19;5011795;28;20564;-82
2022/11/30 06:43:35;;;;;;;32.50;11.60;;;;;;;8.98;69.64;100461.44;5012160;28;20054;-84
2022/11/30 06:46:03;;;;;;;39.58;10.75;;;;;;;8.99;69.52;100464.03;5011803;28;20054;-84
2022/11/30 06:48:30;;;;;;;36.65;10.68;;;;;;;8.99;69.23;100463.16;5011695;28;20053;-83
2022/11/30 06:50:57;;;;;;;34.25;11.32;;;;;;;8.98;69.25;100464.06;5011499;28;20506;-80
2022/11/30 06:53:24;;;;;;;17.42;10.13;;;;;;;8.99;69.54;100464.03;5012176;28;20049;-81
2022/11/30 06:55:51;;;;;;;21.58;10.88;;;;;;;8.98;69.64;100469.34;5011618;28;20141;-80
2022/11/30 06:58:18;;;;;;;22.50;10.57;;;;;;;8.99;69.53;100471.91;5011484;28;20080;-82
2022/11/30 07:00:44;;;;;;;13.50;9.88;;;;;;;9.00;69.55;100472.75;5011793;28;20066;-81
2022/11/30 07:03:11;;;;;;;96.93;13.30;;;;;;;9.01;69.28;100476.22;5011524;28;20058;-78
2022/11/30 07:05:43;;;;;;;81.05;11.38;;;;;;;9.01;69.38;100473.59;5010409;28;20054;-82
2022/11/30 07:08:15;;;;;;;13.63;9.18;;;;;;;8.99;69.42;100477.16;5010958;28;20081;-82
2022/11/30 07:10:43;;;;;;;25.23;11.30;;;;;;;9.00;69.42;100472.75;4992686;28;20124;-80
2022/11/30 07:13:15;;;;;;;39.15;10.52;;;;;;;8.98;69.61;100478.03;5010610;28;20060;-80
2022/11/30 07:15:42;;;;;;;46.20;11.00;;;;;;;8.99;69.42;100477.16;5009511;28;20061;-79
2022/11/30 07:18:09;;;;;;;111.53;13.05;;;;;;;8.99;69.25;100485.03;5009832;28;20066;-81
2022/11/30 07:20:37;;;;;;;118.57;14.52;;;;;;;8.99;69.56;100476.28;5009385;28;20056;-81
2022/11/30 07:26:05;;;;;;;35.50;11.15;;;;;;;8.97;69.21;100489.47;5009495;28;20149;-79
2022/11/30 07:28:37;;;;;;;14.05;10.40;;;;;;;8.97;69.65;100488.63;5010179;28;20498;-81
2022/11/30 07:31:26;;;;;;;15.40;9.05;;;;;;;8.95;69.90;100496.56;5009937;28;20137;-81
2022/11/30 07:33:53;;;;;;;16.40;10.00;;;;;;;8.99;69.41;100489.41;5010494;28;20426;-79
2022/11/30 07:36:22;;;;;;;16.17;10.50;;;;;;;8.97;69.57;100491.25;5010772;28;20061;-82
2022/11/30 07:38:49;;;;;;;27.90;10.38;;;;;;;8.97;69.31;100499.13;5007901;28;20054;-79
2022/11/30 07:41:16;;;;;;;21.30;10.57;;;;;;;8.96;69.39;100492.16;4996391;28;20073;-81
2022/11/30 07:43:43;;;;;;;15.40;8.98;;;;;;;8.95;69.37;100507.06;5010924;28;20057;-81
2022/11/30 07:46:12;;;;;;;14.63;9.73;;;;;;;8.93;69.30;100511.50;5010733;28;20524;-79
2022/11/30 07:48:39;;;;;;;14.23;9.30;;;;;;;8.93;69.20;100513.28;5011051;28;20124;-79
2022/11/30 07:51:10;;;;;;;13.75;9.27;;;;;;;8.92;69.51;100512.44;5010685;28;20057;-82
2022/11/30 07:53:37;;;;;;;21.27;10.43;;;;;;;8.93;69.64;100508.03;5010043;28;20577;-82
2022/11/30 07:56:09;;;;;;;19.23;9.20;;;;;;;8.91;69.55;100510.72;5010258;28;20062;-80
2022/11/30 07:58:36;;;;;;;17.70;10.25;;;;;;;8.93;69.56;100511.50;5010640;28;20068;-82
2022/11/30 08:01:08;;;;;;;25.90;9.93;;;;;;;8.93;69.51;100513.28;5010709;28;20545;-80
2022/11/30 08:03:35;;;;;;;20.13;9.98;;;;;;;8.94;69.72;100515.00;5010775;28;20056;-81
2022/11/30 08:06:06;;;;;;;12.25;9.32;;;;;;;8.95;69.68;100521.97;5010507;28;20065;-81
2022/11/30 08:08:35;;;;;;;16.80;10.85;;;;;;;8.95;69.62;100516.69;5010759;28;20069;-78
2022/11/30 08:11:03;;;;;;;17.88;10.38;;;;;;;8.96;69.67;100526.28;5010450;28;20054;-82
2022/11/30 08:13:30;;;;;;;18.52;9.60;;;;;;;8.96;69.33;100529.78;5009348;28;20551;-81
2022/11/30 08:16:01;;;;;;;24.88;9.07;;;;;;;8.94;69.41;100526.34;5009679;28;20088;-77
2022/11/30 08:18:28;;;;;;;33.00;9.98;;;;;;;8.96;69.47;100527.16;5009325;28;20060;-82
2022/11/30 08:20:59;;;;;;;43.15;9.27;;;;;;;8.94;69.35;100536.84;5010603;28;20060;-81
2022/11/30 08:23:30;;;;;;;31.45;10.00;;;;;;;8.94;69.58;100533.38;5010645;28;20071;-81
2022/11/30 08:26:19;;;;;;;19.83;10.02;;;;;;;8.91;69.87;100542.22;4992047;28;20058;-81
2022/11/30 08:28:47;;;;;;;30.73;9.30;;;;;;;8.95;69.67;100537.72;5006376;28;20045;-80
2022/11/30 08:31:17;;;;;;;53.80;9.77;;;;;;;8.96;69.68;100536.78;4992852;28;20068;-80
2022/11/30 08:33:44;;;;;;;18.30;8.32;;;;;;;8.97;69.50;100543.78;5012454;28;20081;-80
2022/11/30 08:36:18;;;;;;;19.02;9.20;;;;;;;8.97;69.70;100544.63;5014226;28;20050;-82
2022/11/30 08:38:46;;;;;;;16.33;9.02;;;;;;;8.97;69.60;100543.78;5014152;28;20446;-82
2022/11/30 08:41:18;;;;;;;39.47;9.80;;;;;;;8.96;69.64;100547.28;5014193;28;20062;-80
2022/11/30 08:43:46;;;;;;;50.60;10.73;;;;;;;8.98;69.35;100556.81;5014128;28;20069;-82
2022/11/30 08:46:14;;;;;;;37.45;9.60;;;;;;;8.98;69.54;100558.59;5014169;28;20058;-79
2022/11/30 08:49:01;;;;;;;35.20;9.60;;;;;;;8.99;69.31;100560.31;5014135;28;20042;-81
2022/11/30 08:51:49;;;;;;;20.17;9.88;;;;;;;8.98;69.36;100569.94;5014116;28;20050;-81
2022/11/30 08:54:37;;;;;;;17.15;9.57;;;;;;;8.98;69.31;100569.94;4999308;28;20046;-81
2022/11/30 08:57:04;;;;;;;31.02;9.70;;;;;;;8.97;69.29;100573.50;5013774;28;20137;-82
2022/11/30 08:59:31;;;;;;;13.90;9.38;;;;;;;8.96;69.35;100569.16;5014019;28;20069;-79
2022/11/30 09:01:57;;;;;;;14.23;9.98;;;;;;;8.97;69.23;100573.50;5004510;28;20668;-80
2022/11/30 09:04:24;;;;;;;14.38;10.18;;;;;;;8.96;69.45;100570.94;5033567;28;20059;-81
2022/11/30 09:06:50;;;;;;;12.35;9.25;;;;;;;8.97;69.37;100578.75;5033308;28;20049;-80
2022/11/30 09:09:17;;;;;;;12.98;9.27;;;;;;;8.96;69.62;100576.19;5033685;28;20072;-81
2022/11/30 09:11:44;;;;;;;14.82;9.27;;;;;;;8.97;69.65;100581.38;5033331;28;20053;-80
2022/11/30 09:14:10;;;;;;;16.48;9.27;;;;;;;8.98;69.46;100580.47;5033485;28;20060;-81
2022/11/30 09:16:37;;;;;;;19.42;10.02;;;;;;;8.98;69.70;100584.88;5033059;28;20184;-82
2022/11/30 09:19:03;;;;;;;20.55;8.77;;;;;;;8.99;69.39;100583.94;5033219;28;20053;-81
2022/11/30 09:21:30;;;;;;;31.55;9.52;;;;;;;8.99;69.60;100579.56;5033382;28;20049;-79
2022/11/30 09:23:56;;;;;;;27.60;8.50;;;;;;;8.99;69.33;100582.19;5033299;28;20506;-81
2022/11/30 09:26:26;;;;;;;14.55;9.48;;;;;;;9.00;69.37;100588.28;5033171;28;20079;-81
2022/11/30 09:28:53;;;;;;;27.23;9.60;;;;;;;9.01;69.28;100597.03;5033144;28;20073;-81
2022/11/30 09:31:22;;;;;;;32.33;9.60;;;;;;;8.99;69.34;100597.94;5033058;28;20472;-82
2022/11/30 09:33:49;;;;;;;60.58;10.80;;;;;;;9.01;69.10;100589.16;5015629;28;20054;-82
2022/11/30 09:36:18;;;;;;;14.63;8.98;;;;;;;8.99;69.48;100590.06;5015387;28;20140;-80
2022/11/30 09:38:46;;;;;;;36.10;10.55;;;;;;;9.00;69.64;100593.53;5032749;28;20567;-80
2022/11/30 09:41:37;;;;;;;16.80;10.18;;;;;;;8.96;69.54;100587.53;5033020;28;20068;-82
2022/11/30 09:44:24;;;;;;;35.30;11.15;;;;;;;8.97;69.47;100591.03;5015043;28;20505;-80
2022/11/30 09:47:45;;;;;;;14.20;10.02;;;;;;;8.96;69.81;100594.56;5032758;28;20061;-81
2022/11/30 09:50:21;;;;;;;86.38;12.60;;;;;;;8.97;69.46;100589.25;4898255;29;20064;-79
2022/11/30 09:52:52;;;;;;;39.88;12.57;;;;;;;8.97;69.25;100594.50;5016179;28;20053;-79
2022/11/30 09:55:29;;;;;;;20.60;11.00;;;;;;;8.95;69.12;100598.97;5032591;28;20045;-81
2022/11/30 09:58:00;;;;;;;41.17;12.70;;;;;;;8.94;68.96;100594.63;5032525;28;20054;-79
2022/11/30 10:00:27;;;;;;;21.38;12.07;;;;;;;8.93;69.18;100598.16;5032360;28;20480;-81
2022/11/30 10:02:57;;;;;;;22.50;12.60;;;;;;;8.91;68.99;100597.38;5032364;28;20089;-82
2022/11/30 10:05:25;;;;;;;42.38;13.10;;;;;;;8.89;69.08;100583.44;5014735;28;20132;-82
2022/11/30 10:07:52;;;;;;;18.77;11.43;;;;;;;8.88;69.03;100588.72;5032314;28;20153;-79
2022/11/30 10:11:04;;;;;;;18.35;11.48;;;;;;;8.81;69.29;100574.97;5014460;28;20148;-81
2022/11/30 10:13:52;;;;;;;16.92;11.00;;;;;;;8.81;69.23;100580.22;5032465;28;20057;-81
2022/11/30 10:16:38;;;;;;;15.93;10.02;;;;;;;8.80;69.59;100582.00;5032040;28;20144;-81
2022/11/30 10:19:36;;;;;;;19.35;10.52;;;;;;;8.82;69.48;100574.09;5032216;28;20057;-81
2022/11/30 10:22:40;;;;;;;17.17;11.05;;;;;;;8.79;69.16;100582.06;4944294;28;20060;-80
2022/11/30 10:25:16;;;;;;;14.18;9.43;;;;;;;8.80;69.10;100573.25;5031950;28;20811;-82
2022/11/30 10:27:52;;;;;;;14.35;9.95;;;;;;;8.77;69.25;100582.09;5031891;28;20057;-82
2022/11/30 10:30:39;;;;;;;14.60;9.98;;;;;;;8.74;69.27;100576.97;5032203;28;20065;-82
2022/11/30 10:33:18;;;;;;;13.95;8.63;;;;;;;8.75;69.08;100577.84;5032240;28;20112;-81
2022/11/30 10:35:54;;;;;;;13.65;9.18;;;;;;;8.75;69.45;100575.22;5031617;28;20486;-81
2022/11/30 10:38:47;;;;;;;17.05;9.18;;;;;;;8.72;69.44;100578.81;5031709;28;20049;-82
2022/11/30 10:41:19;;;;;;;14.52;8.88;;;;;;;8.75;69.50;100578.69;5031630;28;20053;-81
2022/11/30 10:44:05;;;;;;;11.13;7.75;;;;;;;8.72;69.25;100574.38;5031348;28;20099;-79
2022/11/30 10:46:36;;;;;;;13.43;8.95;;;;;;;8.77;69.34;100571.63;5031383;28;20399;-77
2022/11/30 10:49:13;;;;;;;13.00;8.68;;;;;;;8.78;69.41;100578.56;5031683;28;20129;-82
2022/11/30 10:51:44;;;;;;;12.27;8.40;;;;;;;8.79;69.21;100575.03;5013930;28;20084;-82
2022/11/30 10:54:16;;;;;;;13.88;8.82;;;;;;;8.80;69.45;100575.88;5030471;28;20075;-81
2022/11/30 10:56:42;;;;;;;9.00;6.22;;;;;;;8.84;69.31;100574.88;5030034;28;20517;-82
2022/11/30 10:59:21;;;;;;;13.00;9.05;;;;;;;8.82;69.07;100579.34;5031175;28;20084;-81
2022/11/30 11:01:48;;;;;;;13.07;8.35;;;;;;;8.85;69.24;100581.81;5031354;28;20069;-81
2022/11/30 11:04:16;;;;;;;16.73;9.27;;;;;;;8.85;69.00;100587.06;5031150;28;20088;-80
2022/11/30 11:06:51;;;;;;;16.60;9.35;;;;;;;8.82;69.20;100579.34;5030681;28;20060;-82
2022/11/30 11:12:23;;;;;;;10.90;8.05;;;;;;;8.83;68.96;100575.78;5078543;22;20063;-79
2022/11/30 11:15:26;;;;;;;11.55;8.15;;;;;;;8.79;69.29;100579.44;5050010;28;20145;-78
2022/11/30 11:18:11;;;;;;;8.57;6.80;;;;;;;8.83;68.89;100575.78;5001265;28;20057;-79
2022/11/30 11:20:41;;;;;;;12.65;8.75;;;;;;;8.83;68.91;100581.88;5032274;28;20088;-79
2022/11/30 11:23:22;;;;;;;10.85;8.80;;;;;;;8.79;69.08;100589.94;5032315;28;20076;-78
2022/11/30 11:25:52;;;;;;;13.30;9.15;;;;;;;8.83;68.90;100594.16;5049745;28;20135;-79
2022/11/30 11:28:20;;;;;;;12.13;8.93;;;;;;;8.82;69.00;100584.59;5031898;28;20092;-79
2022/11/30 11:30:47;;;;;;;11.95;8.48;;;;;;;8.82;68.81;100593.28;5049916;28;20065;-79
2022/11/30 11:33:13;;;;;;;14.88;8.95;;;;;;;8.81;68.85;100591.59;5049920;28;20517;-79
2022/11/30 11:36:06;;;;;;;12.63;9.50;;;;;;;8.77;68.96;100591.75;5031763;28;20053;-78
2022/11/30 11:38:42;;;;;;;11.82;8.73;;;;;;;8.78;68.85;100582.97;5042771;28;20562;-79
2022/11/30 11:41:29;;;;;;;11.85;8.48;;;;;;;8.77;68.96;100592.63;5049474;28;20076;-79